• Join FlightAware (Why Join?)
  • Login
  • US Flag 
01:57AM EDT


 

Airport Tracker/Info


-or-


 

Live Flight TrackerFlight Track Log ✈ UAL4543 ✈ 13-Jul-2013 ✈ KEWR - KDSM

Flight Track Log - Related Links

Times and Time Zones

All times are in EDT time to prevent confusion due to time zone crossing. See the UAL4543 flight status page for this flight to view local times or setup timezone preferences in your user account.

Time Position Orientation Groundspeed Altitude Reporting Facility
EDT Latitude Longitude Course Direction KTS MPH feet Rate Location/Type
08:01PM 40.6667 -74.1833 194° South 179 206 400  Level New York TRACON
08:02PM 40.6167 -74.2000 194° South 227 261 2,500 2,400 Climbing New York TRACON
08:03PM 40.6000 -74.2667 252° West 267 307 5,200 2,520 Climbing New York TRACON
08:04PM 40.6167 -74.3500 285° West 273 314 7,600 1,920 Climbing New York TRACON
08:07PM 40.6733 -74.5717 289° West 296 341 11,300 1,500 Climbing New York Center
08:08PM 40.7133 -74.6861 295° West 340 391 12,400 1,080 Climbing New York Center
08:09PM 40.7633 -74.8067 299° West 357 411 13,500 1,140 Climbing New York Center
08:10PM 40.8175 -74.9278 301° West 375 432 14,700 1,140 Climbing New York Center
08:11PM 40.8714 -75.0519 300° West 389 448 15,900 1,140 Climbing New York Center
08:12PM 40.9047 -75.1719 290° West 384 442 17,000 960 Climbing New York Center
08:13PM 40.8869 -75.3053 260° West 371 427 17,900 1,020 Climbing New York Center
08:14PM 40.8542 -75.4542 254° West 376 433 19,100 1,140 Climbing New York Center
08:15PM 40.8236 -75.5919 254° West 382 440 20,300 1,200 Climbing New York Center
08:16PM 40.7889 -75.7264 251° West 388 447 21,500 1,200 Climbing New York Center
08:17PM 40.7583 -75.8586 253° West 388 447 22,700 1,080 Climbing New York Center
08:18PM 40.7256 -75.9903 252° West 388 447 23,800 1,020 Climbing New York Center
08:19PM 40.6922 -76.1275 252° West 393 452 24,800 960 Climbing New York Center
08:20PM 40.6692 -76.2650 258° West 393 452 25,800 960 Climbing New York Center
08:21PM 40.6897 -76.4064 281° West 384 442 26,800 960 Climbing New York Center
08:22PM 40.7119 -76.5506 282° West 390 449 27,800 900 Climbing New York Center
08:23PM 40.7264 -76.6778 279° West 390 449 28,600 900 Climbing New York Center
08:24PM 40.7483 -76.8194 282° West 395 455 29,600 960 Climbing New York Center
08:25PM 40.7722 -76.9669 282° West 400 460 30,600 960 Climbing New York Center
08:26PM 40.7914 -77.1139 280° West 400 460 31,600 900 Climbing New York Center
08:27PM 40.8147 -77.2586 282° West 400 460 32,500 1,020 Climbing New York Center
08:28PM 40.8375 -77.4144 281° West 395 455 33,700 780 Climbing New York Center
08:31PM 40.9031 -77.9072 280° West 410 472 36,000 480 Climbing Cleveland Center
08:32PM 40.9233 -78.0658 280° West 417 480 36,000  Level Cleveland Center
08:33PM 40.9433 -78.2244 280° West 431 496 36,000  Level Cleveland Center
08:34PM 40.9675 -78.3914 281° West 450 518 36,000  Level Cleveland Center
08:35PM 40.9872 -78.5586 279° West 462 532 36,000  Level Cleveland Center
08:36PM 41.0069 -78.7231 279° West 462 532 36,000  Level Cleveland Center
08:37PM 41.0261 -78.8878 279° West 462 532 36,000  Level Cleveland Center
08:38PM 41.0450 -79.0469 279° West 456 525 36,000  Level Cleveland Center
08:39PM 41.0617 -79.2089 278° West 456 525 36,000  Level Cleveland Center
08:40PM 41.0822 -79.3711 280° West 456 525 36,000  Level Cleveland Center
08:41PM 41.1006 -79.5389 278° West 456 525 36,000  Level Cleveland Center
08:42PM 41.1186 -79.7067 278° West 456 525 36,000  Level Cleveland Center
08:43PM 41.1322 -79.8581 277° West 467 537 36,000  Level Cleveland Center
08:44PM 41.1542 -80.0372 279° West 461 531 36,000  Level Cleveland Center
08:45PM 41.1714 -80.2053 278° West 461 531 36,000  Level Cleveland Center
08:46PM 41.1886 -80.3761 278° West 468 539 36,000  Level Cleveland Center
08:47PM 41.2053 -80.5472 277° West 468 539 36,000  Level Cleveland Center
08:48PM 41.2219 -80.7183 277° West 463 533 36,000  Level Cleveland Center
08:49PM 41.2383 -80.8897 277° West 468 539 36,000  Level Cleveland Center
08:50PM 41.2544 -81.0581 277° West 468 539 36,000  Level Cleveland Center
08:51PM 41.2722 -81.2297 278° West 468 539 36,000  Level Cleveland Center
08:52PM 41.2878 -81.4011 277° West 463 533 36,000  Level Cleveland Center
08:53PM 41.3072 -81.5756 278° West 468 539 36,000  Level Cleveland Center
08:54PM 41.3244 -81.7472 278° West 468 539 36,000  Level Cleveland Center
08:55PM 41.3392 -81.9189 277° West 468 539 36,000  Level Cleveland Center
08:56PM 41.3558 -82.0908 277° West 468 539 36,000  Level Cleveland Center
08:57PM 41.3639 -82.2681 274° West 484 557 36,000  Level Cleveland Center
08:58PM 41.3736 -82.4397 274° West 477 549 36,000  Level Cleveland Center
08:59PM 41.3833 -82.6117 274° West 477 549 36,000  Level Cleveland Center
09:00PM 41.3925 -82.7864 274° West 477 549 36,000  Level Cleveland Center
09:01PM 41.4017 -82.9611 274° West 477 549 36,000  Level Cleveland Center
09:02PM 41.4106 -83.1192 274° West 483 556 36,000  Level Cleveland Center
09:03PM 41.4172 -83.2886 273° West 477 549 36,000  Level Cleveland Center
09:04PM 41.4256 -83.4606 274° West 471 542 36,000  Level Cleveland Center
09:05PM 41.4336 -83.6325 274° West 471 542 36,000  Level Cleveland Center
09:06PM 41.4414 -83.8047 274° West 471 542 36,000  Level Cleveland Center
09:07PM 41.4506 -83.9264 276° West 469 540 36,000  Level Chicago Center
09:08PM 41.4583 -84.0972 274° West 465 535 36,000  Level Chicago Center
09:09PM 41.4658 -84.2675 273° West 463 533 36,000  Level Chicago Center
09:10PM 41.4722 -84.4394 273° West 466 536 36,000  Level Chicago Center
09:11PM 41.4789 -84.6108 273° West 463 533 36,000  Level Chicago Center
09:12PM 41.4853 -84.7850 273° West 470 541 36,000  Level Chicago Center
09:13PM 41.4936 -84.9942 273° West 471 542 36,000  Level Chicago Center
09:14PM 41.4989 -85.1708 272° West 474 545 36,000  Level Chicago Center
09:15PM 41.5019 -85.3525 271° West 481 554 36,000  Level Chicago Center
09:16PM 41.5089 -85.5389 273° West 482 555 36,000  Level Chicago Center
09:17PM 41.5158 -85.7175 273° West 478 550 36,000  Level Chicago Center
09:18PM 41.5203 -85.8983 272° West 483 556 36,000  Level Chicago Center
09:19PM 41.5256 -86.0794 272° West 487 560 36,000  Level Chicago Center
09:20PM 41.5283 -86.2603 271° West 485 558 36,000  Level Chicago Center
09:21PM 41.5311 -86.4419 271° West 490 564 36,000  Level Chicago Center
09:22PM 41.5336 -86.6256 271° West 494 568 36,000  Level Chicago Center
09:23PM 41.5364 -86.8233 271° West 492 566 36,000  Level Chicago Center
09:24PM 41.5381 -87.0067 271° West 497 572 36,000  Level Chicago Center
09:25PM 41.5408 -87.1925 271° West 503 579 36,000  Level Chicago Center
09:26PM 41.5428 -87.3753 271° West 498 573 36,000  Level Chicago Center
09:27PM 41.5444 -87.5936 271° West 494 568 36,000  Level Chicago Center
09:28PM 41.5461 -87.7775 271° West 503 579 36,000  Level Chicago Center
09:29PM 41.5467 -87.9622 270° West 509 586 36,000  Level Chicago Center
09:30PM 41.5472 -88.1453 270° West 516 594 36,000  Level Chicago Center
09:31PM 41.5467 -88.3331 270° West 518 596 36,000  Level Chicago Center
09:32PM 41.5478 -88.5583 270° West 514 592 36,000  Level Chicago Center
09:33PM 41.5475 -88.7472 270° West 516 594 36,000  Level Chicago Center
09:34PM 41.5483 -88.9417 270° West 525 604 36,000  Level Chicago Center
09:35PM 41.5481 -89.1350 270° West 526 605 36,000  Level Chicago Center
09:36PM 41.5492 -89.3297 271° West 529 609 36,000  Level Chicago Center
09:37PM 41.5483 -89.5239 270° West 527 606 36,000  Level Chicago Center
09:38PM 41.5475 -89.7489 270° West 520 598 36,000  Level Chicago Center
09:39PM 41.5458 -89.9394 269° West 518 596 36,000  Level Chicago Center
09:40PM 41.5442 -90.1319 269° West 521 600 36,000  Level Chicago Center
09:41PM 41.5417 -90.3253 269° West 528 608 36,000  Level Chicago Center
09:42PM 41.5389 -90.5147 269° West 518 596 36,000  Level Chicago Center
09:43PM 41.5358 -90.7214 269° West 512 589 36,000  Level Chicago Center
09:44PM 41.5322 -90.9089 269° West 510 587 36,000  Level Chicago Center
09:45PM 41.5297 -91.0939 269° West 503 579 36,000  Level Chicago Center
09:46PM 41.5261 -91.2789 269° West 503 579 36,000  Level Chicago Center
09:47PM 41.5219 -91.4611 268° West 498 573 36,000  Level Chicago Center
09:49PM 41.5183 -91.6428 269° West 494 568 36,000 -120 Level Chicago Center
09:50PM 41.5128 -91.8225 268° West 491 565 35,800 -720 Descending Chicago Center
09:51PM 41.5067 -91.9956 267° West 478 550 34,600 -1,740 Descending Chicago Center
09:52PM 41.4989 -92.2058 267° West 475 547 32,300 -2,280 Descending Chicago Center
09:53PM 41.4931 -92.3892 268° West 494 568 30,000 -2,400 Descending Chicago Center
09:54PM 41.4856 -92.5572 267° West 507 583 27,500 -3,000 Descending Chicago Center
09:55PM 41.4772 -92.7683 267° West 483 556 23,900 -3,480 Descending Chicago Center
09:56PM 41.4711 -92.9339 267° West 458 527 20,500 -3,300 Descending Chicago Center
09:57PM 41.5044 -93.0839 287° West 431 496 17,300 -3,120 Descending Chicago Center
09:58PM 41.5294 -93.2292 283° West 411 473 14,200 -2,340 Descending Chicago Center
09:59PM 41.5542 -93.3614 284° West 380 437 12,600 -1,740 Descending Chicago Center
10:00PM 41.5861 -93.4603 293° West 310 357 10,700 -2,400 Descending Chicago Center
10:01PM 41.6208 -93.5497 297° West 282 325 7,700 -3,180 Descending Chicago Center
10:02PM 41.6583 -93.6589 295° West 274 315 4,300 -3,360 Descending Chicago Center